Ana Sayfa
METAR-TAF:

METAR-TAF

Havaalanları :

Perry Lefors Field

Pampa, Teksas, Amerika Birleşik Devletleri

Enlem: 35-36-46N, Boylam: 100-59-46W, yükseklik: 989 m

Güncel hava durumu gözlemi

Rapor saat 13:55 UTC de 24 dakika önce yapıldı.
Rüzgar batıdan 5 kt
Sıcaklık 4°C
Nem 70%
Basınç 1014 hPa
Görüş mesafesi: 16.1 km
Açık gökyüzü

METAR: KPPA 211355Z AUTO 28005KT 10SM CLR 04/M01 A2995 RMK AO2 T00351015

Saat: 08:19 (14:19 UTC)


TAF: eksik

4.000'den fazla havaalanı için hava durumu gözlemleri ve tahminleri (METAR ve TAF raporları).

Kullanılabilir istasyonlar harita üzerinde sarı ve kırmızı noktalarla gösterilir.

İstasyonun adını görmek için fareyi noktanın üzerinde gezdirin.

Sonrasında hava gözlem ve tahminlerini görmek için tıklayın.

Haritayı değiştirmek için: yaklaştırmak için siyah artı işaretli yeşil düğmeye ve uzaklaştırmak için de eksi işaretli düğmeye hızla tıklayın; bitişik haritalar için yeşil okları kullanın.


METAR-TAF: